Terminal Aerodrome Forecast
Issued by NWS Wilmington, OH

Current Version | Previous Version | Text Only | Print | Product List | Glossary On
Versions: 1 2 3 4 5 6 7 8 9 10 11 12 13 14 15 16 17 18 19 20 21
000
FTUS41 KILN 241832 AAA
TAFDAY
TAF AMD
KDAY 241832Z 2419/2518 04006KT P6SM BKN023
     FM250000 06005KT P6SM SCT250
     FM251400 08005KT P6SM FEW035 SCT050=

USA.gov is the U.S. government's official web portal to all federal, state and local government web resources and services.